AFR274 LFPG-RJTT
Flight info
| Callsign | AFR274 |
|---|---|
| Flight time | 12h 59m |
| Altitude | 29000 |
| Route | LANVI DCT BEGAR DCT TRA DCT GAMSA DCT BIRGI DCT INGID DCT SETAL DCT INSAX DCT GOTAR DCT MOPUG DCT ASNEL DCT UDROS/N0492F310 UN743 GAKSU UT310 SIN UN644 ROLIN DCT FOQUS DCT DF DCT TBS N61 DEDON L850 ADEKI DCT RASAM L88 METKA B476 TIMGA A480 OTBOR/K0911F330 N147 ELAHA Z621 ARBOL M610 RULAD/K0909S1010 A343 POSOT B215 FKG W188 LIKMI W270 POPIB/K0902S1070 W270 DKO W69 HUR B339 LADIX W34 VAPGU W100 ORAVA W201 UNSEK A326 DONVO G597 AGAVO/N0490F350 Y644 EGOBA G597 LANAT Y71 XAC |
| Aircraft | B77W/H-SDE1E2E3FGHIJ2J3J4J5M1RWXY/LB1D1 |
Departure
| Time | 2026-04-30 21:49 |
|---|---|
| Airport | Charles de Gaulle International Airport (LFPG) |
Arrival
| Time | 2026-05-01 10:48 |
|---|---|
| Airport | Tokyo Haneda International Airport (RJTT) |
| Time | Latitude | Longitude | Altitude | Speed | Heading |
|---|---|---|---|---|---|
| 2026-04-30 21:00 | 49.00219 | 2.58618 | 359 ft | 0 kts | 264° |
| 2026-04-30 21:01 | 49.00219 | 2.58627 | 359 ft | 0 kts | 264° |
| 2026-04-30 21:31 | 49.00223 | 2.58699 | 361 ft | 4 kts | 266° |
| 2026-04-30 21:31 | 49.00235 | 2.58766 | 366 ft | 4 kts | 201° |
| 2026-04-30 21:32 | 49.00282 | 2.58748 | 359 ft | 3 kts | 172° |
| 2026-04-30 21:32 | 49.00286 | 2.58747 | 359 ft | 0 kts | 175° |
| 2026-04-30 21:37 | 49.00274 | 2.58749 | 359 ft | 0 kts | 175° |
| 2026-04-30 21:38 | 49.00270 | 2.58750 | 364 ft | 2 kts | 175° |
| 2026-04-30 21:38 | 49.00258 | 2.58751 | 359 ft | 0 kts | 175° |
| 2026-04-30 21:39 | 49.00241 | 2.58754 | 366 ft | 6 kts | 175° |
| 2026-04-30 21:40 | 49.00187 | 2.58761 | 365 ft | 8 kts | 175° |
| 2026-04-30 21:40 | 49.00131 | 2.58769 | 367 ft | 8 kts | 175° |
| 2026-04-30 21:40 | 49.00076 | 2.58759 | 359 ft | 8 kts | 204° |
| 2026-04-30 21:40 | 49.00039 | 2.58696 | 361 ft | 8 kts | 243° |
| 2026-04-30 21:41 | 49.00027 | 2.58612 | 359 ft | 8 kts | 264° |
| 2026-04-30 21:41 | 49.00022 | 2.58526 | 365 ft | 8 kts | 265° |
| 2026-04-30 21:41 | 49.00017 | 2.58441 | 359 ft | 8 kts | 265° |
| 2026-04-30 21:41 | 49.00013 | 2.58355 | 362 ft | 8 kts | 265° |
| 2026-04-30 21:42 | 49.00008 | 2.58269 | 360 ft | 8 kts | 265° |
| 2026-04-30 21:42 | 49.00003 | 2.58180 | 359 ft | 9 kts | 265° |
| 2026-04-30 21:42 | 48.99997 | 2.58069 | 359 ft | 12 kts | 266° |
| 2026-04-30 21:42 | 48.99991 | 2.57928 | 366 ft | 14 kts | 266° |
| 2026-04-30 21:43 | 48.99983 | 2.57771 | 361 ft | 16 kts | 266° |
| 2026-04-30 21:43 | 48.99975 | 2.57592 | 362 ft | 18 kts | 266° |
| 2026-04-30 21:43 | 48.99966 | 2.57391 | 362 ft | 20 kts | 266° |
| 2026-04-30 21:43 | 48.99950 | 2.57168 | 360 ft | 22 kts | 264° |
| 2026-04-30 21:44 | 48.99935 | 2.56927 | 359 ft | 24 kts | 265° |
| 2026-04-30 21:44 | 48.99923 | 2.56671 | 359 ft | 23 kts | 265° |
| 2026-04-30 21:44 | 48.99911 | 2.56433 | 364 ft | 23 kts | 265° |
| 2026-04-30 21:44 | 48.99900 | 2.56195 | 363 ft | 23 kts | 266° |
| 2026-04-30 21:45 | 48.99892 | 2.56044 | 359 ft | 13 kts | 266° |
| 2026-04-30 21:45 | 48.99899 | 2.55900 | 366 ft | 15 kts | 284° |
| 2026-04-30 21:45 | 48.99853 | 2.55784 | 366 ft | 15 kts | 182° |
| 2026-04-30 21:45 | 48.99769 | 2.55767 | 363 ft | 8 kts | 220° |
| 2026-04-30 21:46 | 48.99750 | 2.55675 | 358 ft | 10 kts | 263° |
| 2026-04-30 21:46 | 48.99743 | 2.55554 | 358 ft | 12 kts | 268° |
| 2026-04-30 21:46 | 48.99741 | 2.55489 | 365 ft | 4 kts | 262° |
| 2026-04-30 21:46 | 48.99725 | 2.55450 | 366 ft | 5 kts | 220° |
| 2026-04-30 21:47 | 48.99682 | 2.55444 | 366 ft | 8 kts | 160° |
| 2026-04-30 21:47 | 48.99627 | 2.55500 | 364 ft | 12 kts | 139° |
| 2026-04-30 21:47 | 48.99591 | 2.55580 | 363 ft | 9 kts | 107° |
| 2026-04-30 21:47 | 48.99589 | 2.55630 | 356 ft | 0 kts | 87° |
| 2026-04-30 21:48 | 48.99589 | 2.55631 | 356 ft | 0 kts | 87° |
| 2026-04-30 21:48 | 48.99589 | 2.55632 | 363 ft | 0 kts | 87° |
| 2026-04-30 21:48 | 48.99590 | 2.55661 | 365 ft | 15 kts | 87° |
| 2026-04-30 21:48 | 48.99617 | 2.56228 | 367 ft | 93 kts | 85° |
| 2026-04-30 21:49 | 48.99698 | 2.57605 | 364 ft | 169 kts | 85° |
| 2026-04-30 21:49 | 48.99838 | 2.59708 | 548 ft | 220 kts | 83° |
| 2026-04-30 21:49 | 48.99941 | 2.62092 | 1459 ft | 222 kts | 86° |
| 2026-04-30 21:49 | 49.00015 | 2.64312 | 2816 ft | 204 kts | 86° |
| 2026-04-30 21:50 | 49.00103 | 2.66494 | 3480 ft | 209 kts | 84° |
| 2026-04-30 21:50 | 49.00244 | 2.68803 | 3632 ft | 227 kts | 84° |
| 2026-04-30 21:50 | 49.00382 | 2.71255 | 3988 ft | 234 kts | 85° |
| 2026-04-30 21:50 | 49.00436 | 2.73720 | 4604 ft | 231 kts | 90° |
| 2026-04-30 21:51 | 49.00353 | 2.76150 | 5214 ft | 227 kts | 96° |
| 2026-04-30 21:51 | 49.00081 | 2.78500 | 5776 ft | 226 kts | 103° |
| 2026-04-30 21:51 | 48.99601 | 2.80801 | 6028 ft | 237 kts | 111° |
| 2026-04-30 21:51 | 48.98886 | 2.83027 | 6294 ft | 248 kts | 120° |
| 2026-04-30 21:52 | 48.97841 | 2.85137 | 6765 ft | 251 kts | 130° |
| 2026-04-30 21:52 | 48.96873 | 2.87345 | 6886 ft | 255 kts | 100° |
| 2026-04-30 21:52 | 48.96975 | 2.90003 | 7121 ft | 256 kts | 73° |
| 2026-04-30 21:52 | 48.97388 | 2.92665 | 7460 ft | 262 kts | 84° |
| 2026-04-30 21:53 | 48.97446 | 2.95439 | 8015 ft | 262 kts | 92° |
| 2026-04-30 21:53 | 48.97448 | 2.98210 | 8469 ft | 263 kts | 86° |
| 2026-04-30 21:53 | 48.97562 | 3.01017 | 8961 ft | 266 kts | 87° |
| 2026-04-30 21:53 | 48.97610 | 3.03837 | 9502 ft | 268 kts | 90° |
| 2026-04-30 21:54 | 48.97575 | 3.06684 | 10013 ft | 270 kts | 91° |
| 2026-04-30 21:54 | 48.97472 | 3.09553 | 10451 ft | 275 kts | 93° |
| 2026-04-30 21:54 | 48.97319 | 3.12525 | 10621 ft | 290 kts | 94° |
| 2026-04-30 21:54 | 48.97115 | 3.15667 | 10779 ft | 307 kts | 95° |
| 2026-04-30 21:55 | 48.96873 | 3.18990 | 10920 ft | 325 kts | 95° |
| 2026-04-30 21:55 | 48.96597 | 3.22502 | 11069 ft | 343 kts | 96° |
| 2026-04-30 21:55 | 48.96295 | 3.26182 | 11386 ft | 355 kts | 96° |
| 2026-04-30 21:55 | 48.95978 | 3.29956 | 11863 ft | 363 kts | 96° |
| 2026-04-30 21:56 | 48.95647 | 3.33797 | 12448 ft | 367 kts | 96° |
| 2026-04-30 21:56 | 48.95313 | 3.37648 | 13151 ft | 368 kts | 96° |
| 2026-04-30 21:56 | 48.94978 | 3.41514 | 13800 ft | 370 kts | 95° |
| 2026-04-30 21:56 | 48.94637 | 3.45463 | 14423 ft | 372 kts | 95° |
| 2026-04-30 21:57 | 48.94296 | 3.49379 | 15052 ft | 375 kts | 95° |
| 2026-04-30 21:57 | 48.93949 | 3.53316 | 15659 ft | 377 kts | 95° |
| 2026-04-30 21:57 | 48.93629 | 3.57283 | 16217 ft | 379 kts | 93° |
| 2026-04-30 21:57 | 48.93400 | 3.61302 | 16774 ft | 381 kts | 92° |
| 2026-04-30 21:58 | 48.93206 | 3.65329 | 17356 ft | 383 kts | 91° |
| 2026-04-30 21:58 | 48.93013 | 3.69388 | 17907 ft | 386 kts | 91° |
| 2026-04-30 21:58 | 48.92881 | 3.72093 | 18268 ft | 387 kts | 91° |
| 2026-04-30 21:58 | 48.92605 | 3.77514 | 18986 ft | 390 kts | 91° |
| 2026-04-30 21:59 | 48.92458 | 3.80299 | 19303 ft | 393 kts | 92° |
| 2026-04-30 21:59 | 48.92236 | 3.84453 | 19802 ft | 395 kts | 92° |
| 2026-04-30 21:59 | 48.92008 | 3.88632 | 20299 ft | 398 kts | 92° |
| 2026-04-30 22:00 | 48.91545 | 3.97075 | 21195 ft | 404 kts | 92° |
| 2026-04-30 22:00 | 48.91065 | 4.05631 | 22135 ft | 408 kts | 92° |
| 2026-04-30 22:00 | 48.90822 | 4.09928 | 22571 ft | 410 kts | 92° |
| 2026-04-30 22:01 | 48.90575 | 4.14267 | 22973 ft | 413 kts | 92° |
| 2026-04-30 22:01 | 48.90326 | 4.18631 | 23359 ft | 416 kts | 92° |
| 2026-04-30 22:01 | 48.89897 | 4.22983 | 23690 ft | 421 kts | 103° |
| 2026-04-30 22:01 | 48.88666 | 4.27067 | 23965 ft | 429 kts | 117° |
| 2026-04-30 22:02 | 48.87105 | 4.30970 | 24217 ft | 433 kts | 116° |
| 2026-04-30 22:02 | 48.85601 | 4.34938 | 24568 ft | 435 kts | 115° |
| 2026-04-30 22:02 | 48.84111 | 4.38976 | 24963 ft | 437 kts | 115° |
| 2026-04-30 22:02 | 48.82636 | 4.43010 | 25319 ft | 439 kts | 115° |
| 2026-04-30 22:03 | 48.81151 | 4.47075 | 25657 ft | 441 kts | 115° |
| 2026-04-30 22:03 | 48.79660 | 4.51153 | 25966 ft | 444 kts | 115° |
| 2026-04-30 22:03 | 48.78153 | 4.55258 | 26269 ft | 447 kts | 115° |
| 2026-04-30 22:03 | 48.76656 | 4.59325 | 26605 ft | 448 kts | 115° |
| 2026-04-30 22:04 | 48.75113 | 4.63508 | 26902 ft | 450 kts | 115° |
| 2026-04-30 22:04 | 48.73596 | 4.67613 | 27150 ft | 453 kts | 115° |
| 2026-04-30 22:04 | 48.70500 | 4.75962 | 27686 ft | 458 kts | 115° |
| 2026-04-30 22:05 | 48.68934 | 4.80172 | 27966 ft | 460 kts | 115° |
| 2026-04-30 22:05 | 48.67362 | 4.84393 | 28223 ft | 462 kts | 115° |
| 2026-04-30 22:05 | 48.65778 | 4.88638 | 28476 ft | 463 kts | 115° |
| 2026-04-30 22:05 | 48.64192 | 4.92881 | 28721 ft | 465 kts | 115° |
| 2026-04-30 22:06 | 48.62595 | 4.97150 | 28939 ft | 467 kts | 115° |
| 2026-04-30 22:06 | 48.59371 | 5.05749 | 29155 ft | 473 kts | 115° |
| 2026-04-30 22:06 | 48.57741 | 5.10083 | 29192 ft | 475 kts | 115° |
| 2026-04-30 22:07 | 48.54461 | 5.18787 | 29199 ft | 477 kts | 115° |
| 2026-04-30 22:07 | 48.51164 | 5.27504 | 29188 ft | 478 kts | 115° |
| 2026-04-30 22:08 | 48.47880 | 5.36149 | 29176 ft | 477 kts | 115° |
| 2026-04-30 22:08 | 48.44584 | 5.44809 | 29173 ft | 475 kts | 115° |
| 2026-04-30 22:09 | 48.41293 | 5.53429 | 29175 ft | 474 kts | 115° |
| 2026-04-30 22:09 | 48.38002 | 5.62023 | 29181 ft | 472 kts | 115° |
| 2026-04-30 22:10 | 48.34722 | 5.70562 | 29195 ft | 471 kts | 114° |
| 2026-04-30 22:10 | 48.31441 | 5.79094 | 29200 ft | 470 kts | 113° |
| 2026-04-30 22:11 | 48.29100 | 5.88072 | 29196 ft | 459 kts | 102° |
| 2026-04-30 22:11 | 48.28174 | 5.92661 | 29200 ft | 459 kts | 102° |
| 2026-04-30 22:12 | 48.26303 | 6.01905 | 29217 ft | 461 kts | 102° |
| 2026-04-30 22:12 | 48.24344 | 6.11092 | 29205 ft | 462 kts | 103° |
| 2026-04-30 22:13 | 48.22328 | 6.20257 | 29216 ft | 463 kts | 103° |
| 2026-04-30 22:13 | 48.20305 | 6.29373 | 29210 ft | 464 kts | 103° |
| 2026-04-30 22:14 | 48.18259 | 6.38553 | 29217 ft | 464 kts | 103° |
| 2026-04-30 22:14 | 48.16194 | 6.47784 | 29199 ft | 464 kts | 103° |
| 2026-04-30 22:15 | 48.14150 | 6.56888 | 29207 ft | 464 kts | 103° |
| 2026-04-30 22:15 | 48.12085 | 6.66060 | 29209 ft | 465 kts | 103° |
| 2026-04-30 22:16 | 48.10010 | 6.75217 | 29218 ft | 465 kts | 103° |
| 2026-04-30 22:17 | 48.05843 | 6.93515 | 29232 ft | 464 kts | 103° |
| 2026-04-30 22:17 | 48.02697 | 7.07219 | 29222 ft | 464 kts | 103° |
| 2026-04-30 22:18 | 47.99550 | 7.20851 | 29228 ft | 462 kts | 103° |
| 2026-04-30 22:19 | 47.96395 | 7.34422 | 29232 ft | 460 kts | 103° |
| 2026-04-30 22:20 | 47.93240 | 7.47914 | 29228 ft | 458 kts | 103° |
| 2026-04-30 22:20 | 47.90062 | 7.61365 | 29231 ft | 459 kts | 104° |
| 2026-04-30 22:21 | 47.87820 | 7.70276 | 29229 ft | 460 kts | 104° |
| 2026-04-30 22:21 | 47.85549 | 7.79183 | 29222 ft | 460 kts | 104° |
| 2026-04-30 22:22 | 47.83282 | 7.88092 | 29233 ft | 461 kts | 104° |
| 2026-04-30 22:22 | 47.81047 | 7.96872 | 29209 ft | 462 kts | 104° |
| 2026-04-30 22:23 | 47.78759 | 8.05864 | 29221 ft | 462 kts | 104° |
| 2026-04-30 22:23 | 47.76463 | 8.14807 | 29215 ft | 463 kts | 104° |
| 2026-04-30 22:24 | 47.74164 | 8.23735 | 29217 ft | 463 kts | 104° |
| 2026-04-30 22:24 | 47.71883 | 8.32574 | 29218 ft | 461 kts | 104° |
| 2026-04-30 22:25 | 47.69578 | 8.41472 | 29217 ft | 461 kts | 104° |
| 2026-04-30 22:25 | 47.67381 | 8.50381 | 29216 ft | 458 kts | 102° |
| 2026-04-30 22:26 | 47.64423 | 8.63731 | 29217 ft | 455 kts | 102° |
| 2026-04-30 22:27 | 47.62420 | 8.72636 | 29210 ft | 455 kts | 102° |
| 2026-04-30 22:27 | 47.59372 | 8.85947 | 29207 ft | 454 kts | 102° |
| 2026-04-30 22:28 | 47.56301 | 8.99237 | 29223 ft | 454 kts | 102° |
| 2026-04-30 22:29 | 47.52220 | 9.16795 | 29200 ft | 454 kts | 102° |
| 2026-04-30 22:31 | 47.45318 | 9.46170 | 29213 ft | 453 kts | 102° |
| 2026-04-30 22:32 | 47.40910 | 9.68305 | 29207 ft | 442 kts | 91° |
| 2026-04-30 22:33 | 47.40327 | 9.90710 | 29201 ft | 438 kts | 85° |
| 2026-04-30 22:35 | 47.39899 | 10.13269 | 29186 ft | 439 kts | 86° |
| 2026-04-30 22:36 | 47.39414 | 10.35577 | 29167 ft | 436 kts | 86° |
| 2026-04-30 22:37 | 47.38971 | 10.53538 | 29193 ft | 440 kts | 86° |
| 2026-04-30 22:38 | 47.38550 | 10.71593 | 29202 ft | 440 kts | 86° |
| 2026-04-30 22:39 | 47.38179 | 10.85143 | 29192 ft | 440 kts | 87° |
| 2026-04-30 22:40 | 47.37429 | 11.12164 | 29183 ft | 439 kts | 87° |
| 2026-04-30 22:41 | 47.36742 | 11.34766 | 29189 ft | 441 kts | 88° |
| 2026-04-30 22:43 | 47.35870 | 11.61807 | 29173 ft | 435 kts | 87° |
| 2026-04-30 22:44 | 47.35262 | 11.79478 | 29186 ft | 438 kts | 87° |
| 2026-04-30 22:45 | 47.34265 | 12.06463 | 29199 ft | 440 kts | 88° |
| 2026-04-30 22:47 | 47.33190 | 12.33661 | 29177 ft | 444 kts | 88° |
| 2026-04-30 22:48 | 47.32434 | 12.51787 | 29175 ft | 442 kts | 89° |
| 2026-04-30 22:49 | 47.31257 | 12.78875 | 29202 ft | 445 kts | 89° |
| 2026-04-30 22:51 | 47.29993 | 13.06425 | 29185 ft | 451 kts | 90° |
| 2026-04-30 22:52 | 47.29333 | 13.20252 | 29206 ft | 452 kts | 90° |
| 2026-04-30 22:53 | 47.28427 | 13.38682 | 29217 ft | 450 kts | 90° |
| 2026-04-30 22:53 | 47.27729 | 13.52478 | 29202 ft | 451 kts | 90° |
| 2026-04-30 22:55 | 47.26486 | 13.75463 | 29176 ft | 450 kts | 91° |
| 2026-04-30 22:56 | 47.25307 | 13.93772 | 29222 ft | 449 kts | 91° |
| 2026-04-30 22:57 | 47.23810 | 14.16740 | 29211 ft | 455 kts | 92° |
| 2026-04-30 22:58 | 47.22193 | 14.35301 | 29164 ft | 459 kts | 96° |
| 2026-04-30 22:59 | 47.19027 | 14.63164 | 29156 ft | 460 kts | 96° |
| 2026-05-01 07:23 | 40.33074 | 106.90101 | 33079 ft | 511 kts | 113° |
| 2026-05-01 07:23 | 40.31504 | 106.99150 | 33072 ft | 512 kts | 92° |
| 2026-05-01 07:24 | 40.31573 | 107.03805 | 33061 ft | 511 kts | 81° |
| 2026-05-01 07:24 | 40.32773 | 107.12963 | 33069 ft | 510 kts | 78° |
| 2026-05-01 07:25 | 40.34016 | 107.22155 | 33068 ft | 513 kts | 79° |
| 2026-05-01 07:25 | 40.35190 | 107.31391 | 33060 ft | 514 kts | 79° |
| 2026-05-01 07:26 | 40.36326 | 107.40659 | 33065 ft | 515 kts | 79° |
| 2026-05-01 07:26 | 40.37455 | 107.49940 | 33063 ft | 515 kts | 79° |
| 2026-05-01 07:27 | 40.38582 | 107.59229 | 33065 ft | 516 kts | 80° |
| 2026-05-01 07:27 | 40.39706 | 107.68534 | 33067 ft | 516 kts | 80° |
| 2026-05-01 07:28 | 40.40820 | 107.77841 | 33064 ft | 516 kts | 80° |
| 2026-05-01 07:28 | 40.41918 | 107.87095 | 33066 ft | 517 kts | 80° |
| 2026-05-01 07:29 | 40.43023 | 107.96428 | 33064 ft | 517 kts | 80° |
| 2026-05-01 07:29 | 40.44120 | 108.05839 | 33063 ft | 518 kts | 80° |
| 2026-05-01 07:30 | 40.45194 | 108.15197 | 33069 ft | 518 kts | 80° |
| 2026-05-01 07:30 | 40.46262 | 108.24554 | 33064 ft | 518 kts | 80° |
| 2026-05-01 07:31 | 40.47143 | 108.32332 | 33064 ft | 517 kts | 80° |
| 2026-05-01 07:32 | 40.49766 | 108.55728 | 33064 ft | 516 kts | 80° |
| 2026-05-01 07:33 | 40.51310 | 108.69708 | 33065 ft | 515 kts | 81° |
| 2026-05-01 07:33 | 40.52834 | 108.83670 | 33066 ft | 514 kts | 81° |
| 2026-05-01 07:34 | 40.54342 | 108.97625 | 33064 ft | 514 kts | 81° |
| 2026-05-01 07:35 | 40.55336 | 109.06939 | 33064 ft | 514 kts | 81° |
| 2026-05-01 07:35 | 40.56324 | 109.16256 | 33064 ft | 515 kts | 81° |
| 2026-05-01 07:36 | 40.57312 | 109.25648 | 33066 ft | 515 kts | 81° |
| 2026-05-01 07:36 | 40.58288 | 109.35000 | 33066 ft | 516 kts | 81° |
| 2026-05-01 07:37 | 40.59740 | 109.49052 | 33064 ft | 517 kts | 81° |
| 2026-05-01 07:37 | 40.60702 | 109.58429 | 33066 ft | 517 kts | 81° |
| 2026-05-01 07:38 | 40.61654 | 109.67828 | 33066 ft | 518 kts | 81° |
| 2026-05-01 07:39 | 40.63068 | 109.81928 | 33073 ft | 518 kts | 81° |
| 2026-05-01 07:39 | 40.64474 | 109.96115 | 33074 ft | 519 kts | 82° |
| 2026-05-01 07:40 | 40.64774 | 110.05616 | 33074 ft | 520 kts | 90° |
| 2026-05-01 07:40 | 40.64645 | 110.15138 | 33080 ft | 521 kts | 90° |
| 2026-05-01 07:41 | 40.64551 | 110.24631 | 33068 ft | 522 kts | 90° |
| 2026-05-01 07:42 | 40.64458 | 110.38952 | 33079 ft | 521 kts | 89° |
| 2026-05-01 07:42 | 40.64382 | 110.48579 | 33073 ft | 522 kts | 90° |
| 2026-05-01 07:43 | 40.64295 | 110.58274 | 33065 ft | 522 kts | 90° |
| 2026-05-01 07:43 | 40.64155 | 110.72608 | 33078 ft | 521 kts | 90° |
| 2026-05-01 07:44 | 40.63946 | 110.91706 | 33071 ft | 522 kts | 90° |
| 2026-05-01 07:45 | 40.63827 | 111.01260 | 33076 ft | 522 kts | 90° |
| 2026-05-01 07:45 | 40.63703 | 111.10843 | 33072 ft | 523 kts | 90° |
| 2026-05-01 07:46 | 40.63571 | 111.20421 | 33075 ft | 523 kts | 90° |
| 2026-05-01 07:47 | 40.63356 | 111.34810 | 33073 ft | 524 kts | 90° |
| 2026-05-01 07:47 | 40.63206 | 111.44408 | 33076 ft | 525 kts | 90° |
| 2026-05-01 07:48 | 40.62964 | 111.58769 | 33074 ft | 525 kts | 90° |
| 2026-05-01 07:48 | 40.62793 | 111.68392 | 33073 ft | 525 kts | 90° |
| 2026-05-01 07:49 | 40.62521 | 111.82892 | 33075 ft | 526 kts | 90° |
| 2026-05-01 07:50 | 40.62354 | 111.92528 | 33073 ft | 526 kts | 89° |
| 2026-05-01 07:50 | 40.62034 | 112.06989 | 33071 ft | 527 kts | 91° |
| 2026-05-01 07:51 | 40.61790 | 112.16635 | 33076 ft | 527 kts | 90° |
| 2026-05-01 07:52 | 40.61467 | 112.31203 | 33083 ft | 528 kts | 91° |
| 2026-05-01 07:52 | 40.61226 | 112.40860 | 33085 ft | 528 kts | 91° |
| 2026-05-01 07:53 | 40.60806 | 112.55274 | 33071 ft | 527 kts | 93° |
| 2026-05-01 07:53 | 40.60197 | 112.64908 | 33078 ft | 527 kts | 94° |
| 2026-05-01 07:55 | 40.58469 | 112.88946 | 33075 ft | 526 kts | 94° |
| 2026-05-01 07:56 | 40.57025 | 113.11308 | 33064 ft | 526 kts | 94° |
| 2026-05-01 07:57 | 40.56043 | 113.25688 | 33065 ft | 527 kts | 94° |
| 2026-05-01 07:58 | 40.54689 | 113.44875 | 33066 ft | 526 kts | 94° |
| 2026-05-01 07:59 | 40.53311 | 113.64041 | 33060 ft | 527 kts | 95° |
| 2026-05-01 08:00 | 40.51180 | 113.92848 | 33061 ft | 526 kts | 95° |
| 2026-05-01 08:01 | 40.50053 | 114.12014 | 33062 ft | 526 kts | 91° |
| 2026-05-01 08:02 | 40.49533 | 114.26419 | 33065 ft | 527 kts | 92° |
| 2026-05-01 08:03 | 40.48907 | 114.40845 | 33055 ft | 527 kts | 92° |
| 2026-05-01 08:03 | 40.48239 | 114.55283 | 33027 ft | 527 kts | 92° |
| 2026-05-01 08:04 | 40.47334 | 114.74513 | 33025 ft | 528 kts | 92° |
| 2026-05-01 08:05 | 40.46634 | 114.88948 | 33024 ft | 528 kts | 92° |
| 2026-05-01 08:06 | 40.45913 | 115.03379 | 33020 ft | 528 kts | 92° |
| 2026-05-01 08:07 | 40.44925 | 115.22652 | 33015 ft | 529 kts | 93° |
| 2026-05-01 08:08 | 40.44161 | 115.37183 | 33010 ft | 530 kts | 93° |
| 2026-05-01 08:09 | 40.43098 | 115.56422 | 33011 ft | 530 kts | 94° |
| 2026-05-01 08:09 | 40.42325 | 115.66175 | 33009 ft | 530 kts | 96° |
| 2026-05-01 08:10 | 40.40706 | 115.85149 | 33000 ft | 530 kts | 96° |
| 2026-05-01 08:11 | 40.39110 | 116.04458 | 33004 ft | 530 kts | 96° |
| 2026-05-01 08:12 | 40.37887 | 116.18969 | 32996 ft | 532 kts | 96° |
| 2026-05-01 08:13 | 40.36647 | 116.33436 | 32996 ft | 532 kts | 96° |
| 2026-05-01 08:13 | 40.35363 | 116.48173 | 33004 ft | 532 kts | 96° |
| 2026-05-01 08:14 | 40.34532 | 116.57632 | 32996 ft | 533 kts | 96° |
| 2026-05-01 08:14 | 40.32846 | 116.66983 | 33011 ft | 527 kts | 121° |
| 2026-05-01 08:15 | 40.30700 | 116.70893 | 32987 ft | 520 kts | 139° |
| 2026-05-01 08:15 | 40.24787 | 116.76098 | 33003 ft | 511 kts | 163° |
| 2026-05-01 08:15 | 40.21431 | 116.77410 | 33003 ft | 496 kts | 178° |
| 2026-05-01 08:16 | 40.18014 | 116.78022 | 32998 ft | 496 kts | 179° |
| 2026-05-01 08:16 | 40.11143 | 116.79207 | 33006 ft | 500 kts | 178° |
| 2026-05-01 08:17 | 40.04243 | 116.80525 | 33001 ft | 500 kts | 178° |
| 2026-05-01 08:17 | 39.97381 | 116.81910 | 32996 ft | 497 kts | 178° |
| 2026-05-01 08:18 | 39.90579 | 116.83275 | 32995 ft | 492 kts | 178° |
| 2026-05-01 08:19 | 39.77128 | 116.85961 | 33013 ft | 486 kts | 178° |
| 2026-05-01 08:19 | 39.70440 | 116.87349 | 33022 ft | 487 kts | 178° |
| 2026-05-01 08:20 | 39.63829 | 116.88729 | 33033 ft | 488 kts | 178° |
| 2026-05-01 08:20 | 39.57124 | 116.90118 | 33038 ft | 489 kts | 178° |
| 2026-05-01 08:21 | 39.51478 | 116.91284 | 33041 ft | 490 kts | 178° |
| 2026-05-01 08:21 | 39.44732 | 116.92675 | 33037 ft | 491 kts | 178° |
| 2026-05-01 08:22 | 39.37928 | 116.94076 | 33046 ft | 491 kts | 179° |
| 2026-05-01 08:22 | 39.31191 | 116.95457 | 33046 ft | 490 kts | 179° |
| 2026-05-01 08:23 | 39.24462 | 116.96838 | 33047 ft | 489 kts | 179° |
| 2026-05-01 08:23 | 39.17830 | 116.98891 | 33040 ft | 505 kts | 160° |
| 2026-05-01 08:23 | 39.14910 | 117.01519 | 33036 ft | 523 kts | 141° |
| 2026-05-01 08:24 | 39.12655 | 117.05258 | 33061 ft | 536 kts | 123° |
| 2026-05-01 08:24 | 39.11257 | 117.09738 | 33035 ft | 544 kts | 104° |
| 2026-05-01 08:24 | 39.10656 | 117.14544 | 33060 ft | 543 kts | 98° |
| 2026-05-01 08:25 | 39.09633 | 117.24216 | 33052 ft | 546 kts | 100° |
| 2026-05-01 08:25 | 39.08383 | 117.33883 | 33052 ft | 548 kts | 101° |
| 2026-05-01 08:26 | 39.07688 | 117.43666 | 33039 ft | 550 kts | 91° |
| 2026-05-01 08:26 | 39.07655 | 117.53520 | 33052 ft | 551 kts | 90° |
| 2026-05-01 08:27 | 39.07594 | 117.63380 | 33039 ft | 550 kts | 91° |
| 2026-05-01 08:27 | 39.07463 | 117.73223 | 33051 ft | 550 kts | 91° |
| 2026-05-01 08:28 | 39.07316 | 117.82994 | 33041 ft | 549 kts | 91° |
| 2026-05-01 08:28 | 39.07170 | 117.92777 | 33050 ft | 549 kts | 91° |
| 2026-05-01 08:29 | 39.06969 | 118.02057 | 33040 ft | 548 kts | 95° |
| 2026-05-01 08:29 | 39.05836 | 118.11538 | 33060 ft | 548 kts | 104° |
| 2026-05-01 08:30 | 39.04210 | 118.21149 | 33051 ft | 551 kts | 104° |
| 2026-05-01 08:30 | 39.02634 | 118.30842 | 33049 ft | 554 kts | 103° |
| 2026-05-01 08:31 | 39.01094 | 118.40515 | 33112 ft | 558 kts | 104° |
| 2026-05-01 08:31 | 39.00309 | 118.45403 | 33449 ft | 556 kts | 104° |
| 2026-05-01 08:31 | 38.99528 | 118.50250 | 33967 ft | 552 kts | 104° |
| 2026-05-01 08:31 | 38.98751 | 118.55058 | 34432 ft | 548 kts | 104° |
| 2026-05-01 08:32 | 38.97976 | 118.59857 | 34745 ft | 549 kts | 104° |
| 2026-05-01 08:32 | 38.97197 | 118.64667 | 34939 ft | 551 kts | 104° |
| 2026-05-01 08:32 | 38.96411 | 118.69505 | 35007 ft | 554 kts | 104° |
| 2026-05-01 08:33 | 38.94833 | 118.79188 | 35048 ft | 554 kts | 104° |
| 2026-05-01 08:33 | 38.93348 | 118.88262 | 35039 ft | 551 kts | 104° |
| 2026-05-01 08:34 | 38.91764 | 118.97877 | 35042 ft | 549 kts | 104° |
| 2026-05-01 08:34 | 38.90197 | 119.07343 | 35048 ft | 549 kts | 104° |
| 2026-05-01 08:35 | 38.88589 | 119.16926 | 35056 ft | 550 kts | 104° |
| 2026-05-01 08:35 | 38.86969 | 119.26501 | 35058 ft | 553 kts | 104° |
| 2026-05-01 08:36 | 38.85331 | 119.36166 | 35057 ft | 555 kts | 105° |
| 2026-05-01 08:36 | 38.83681 | 119.45863 | 35056 ft | 557 kts | 105° |
| 2026-05-01 08:37 | 38.82019 | 119.55588 | 35055 ft | 558 kts | 105° |
| 2026-05-01 08:37 | 38.80359 | 119.65256 | 35067 ft | 559 kts | 105° |
| 2026-05-01 08:38 | 38.78672 | 119.74995 | 35061 ft | 560 kts | 105° |
| 2026-05-01 08:38 | 38.76982 | 119.84761 | 35066 ft | 561 kts | 105° |
| 2026-05-01 08:39 | 38.75411 | 119.94568 | 35063 ft | 562 kts | 104° |
| 2026-05-01 08:39 | 38.73774 | 120.04383 | 35056 ft | 562 kts | 105° |
| 2026-05-01 08:40 | 38.69231 | 120.17600 | 35060 ft | 527 kts | 144° |
| 2026-05-01 08:40 | 38.66443 | 120.20539 | 35065 ft | 515 kts | 156° |
| 2026-05-01 08:40 | 38.63404 | 120.22790 | 35057 ft | 506 kts | 166° |
| 2026-05-01 08:41 | 38.60100 | 120.24213 | 35057 ft | 484 kts | 179° |
| 2026-05-01 08:41 | 38.56894 | 120.25465 | 35041 ft | 503 kts | 164° |
| 2026-05-01 08:41 | 38.53932 | 120.28044 | 35055 ft | 530 kts | 144° |
| 2026-05-01 08:41 | 38.51620 | 120.31811 | 35049 ft | 551 kts | 124° |
| 2026-05-01 08:42 | 38.50229 | 120.36420 | 35052 ft | 564 kts | 104° |
| 2026-05-01 08:42 | 38.49927 | 120.41426 | 35061 ft | 567 kts | 84° |
| 2026-05-01 08:42 | 38.50734 | 120.46320 | 35067 ft | 562 kts | 67° |
| 2026-05-01 08:42 | 38.52111 | 120.50978 | 35076 ft | 561 kts | 67° |
| 2026-05-01 08:43 | 38.53896 | 120.60734 | 35069 ft | 567 kts | 81° |
| 2026-05-01 08:43 | 38.53885 | 120.70787 | 35067 ft | 567 kts | 100° |
| 2026-05-01 08:44 | 38.52257 | 120.80619 | 35066 ft | 566 kts | 107° |
| 2026-05-01 08:44 | 38.50370 | 120.90385 | 35057 ft | 567 kts | 106° |
| 2026-05-01 08:45 | 38.48691 | 121.00238 | 35056 ft | 568 kts | 104° |
| 2026-05-01 08:45 | 38.47089 | 121.10092 | 35048 ft | 567 kts | 104° |
| 2026-05-01 08:46 | 38.45485 | 121.19938 | 35052 ft | 566 kts | 103° |
| 2026-05-01 08:46 | 38.43983 | 121.29799 | 35052 ft | 565 kts | 104° |
| 2026-05-01 08:47 | 38.42348 | 121.39590 | 35057 ft | 565 kts | 104° |
| 2026-05-01 08:47 | 38.40713 | 121.49408 | 35056 ft | 566 kts | 104° |
| 2026-05-01 08:48 | 38.39081 | 121.59233 | 35053 ft | 567 kts | 104° |
| 2026-05-01 08:48 | 38.37433 | 121.69087 | 35060 ft | 569 kts | 104° |
| 2026-05-01 08:49 | 38.35774 | 121.78971 | 35059 ft | 571 kts | 104° |
| 2026-05-01 08:49 | 38.34098 | 121.88882 | 35054 ft | 572 kts | 104° |
| 2026-05-01 08:50 | 38.32412 | 121.98798 | 35060 ft | 573 kts | 104° |
| 2026-05-01 08:50 | 38.30717 | 122.08718 | 35055 ft | 573 kts | 105° |
| 2026-05-01 08:51 | 38.29010 | 122.18660 | 35057 ft | 574 kts | 105° |
| 2026-05-01 08:51 | 38.27333 | 122.28584 | 35054 ft | 574 kts | 103° |
| 2026-05-01 08:52 | 38.25874 | 122.38573 | 35047 ft | 570 kts | 108° |
| 2026-05-01 08:52 | 38.24537 | 122.43343 | 35053 ft | 562 kts | 121° |
| 2026-05-01 08:52 | 38.22655 | 122.47647 | 35068 ft | 553 kts | 130° |
| 2026-05-01 08:53 | 38.17733 | 122.54909 | 35080 ft | 536 kts | 145° |
| 2026-05-01 08:53 | 38.12375 | 122.61541 | 35074 ft | 540 kts | 143° |
| 2026-05-01 08:54 | 38.07105 | 122.68366 | 35072 ft | 543 kts | 142° |
| 2026-05-01 08:54 | 38.01819 | 122.75252 | 35074 ft | 545 kts | 142° |
| 2026-05-01 08:55 | 37.97421 | 122.80969 | 35074 ft | 545 kts | 143° |
| 2026-05-01 08:55 | 37.92109 | 122.87846 | 35073 ft | 546 kts | 143° |
| 2026-05-01 08:56 | 37.86788 | 122.94717 | 35070 ft | 545 kts | 143° |
| 2026-05-01 08:56 | 37.81476 | 123.01565 | 35078 ft | 545 kts | 143° |
| 2026-05-01 08:57 | 37.76161 | 123.08394 | 35104 ft | 544 kts | 143° |
| 2026-05-01 08:57 | 37.70881 | 123.15169 | 35100 ft | 544 kts | 143° |
| 2026-05-01 08:58 | 37.65569 | 123.21974 | 35102 ft | 544 kts | 143° |
| 2026-05-01 08:58 | 37.60259 | 123.28760 | 35110 ft | 543 kts | 143° |
| 2026-05-01 08:59 | 37.55096 | 123.35770 | 35106 ft | 552 kts | 136° |
| 2026-05-01 08:59 | 37.50456 | 123.43614 | 35113 ft | 555 kts | 134° |
| 2026-05-01 09:00 | 37.45916 | 123.51381 | 35107 ft | 554 kts | 134° |
| 2026-05-01 09:00 | 37.41304 | 123.59139 | 35110 ft | 553 kts | 135° |
| 2026-05-01 09:01 | 37.36678 | 123.66855 | 35112 ft | 552 kts | 135° |
| 2026-05-01 09:01 | 37.32046 | 123.74559 | 35115 ft | 552 kts | 135° |
| 2026-05-01 09:02 | 37.27420 | 123.82244 | 35122 ft | 552 kts | 135° |
| 2026-05-01 09:02 | 37.22759 | 123.89981 | 35121 ft | 552 kts | 135° |
| 2026-05-01 09:03 | 37.18548 | 123.98085 | 35114 ft | 566 kts | 117° |
| 2026-05-01 09:03 | 37.17317 | 124.02812 | 35138 ft | 573 kts | 105° |
| 2026-05-01 09:03 | 37.16761 | 124.07843 | 35130 ft | 577 kts | 91° |
| 2026-05-01 09:04 | 37.17304 | 124.17832 | 35139 ft | 579 kts | 85° |
| 2026-05-01 09:04 | 37.17750 | 124.27923 | 35135 ft | 581 kts | 89° |
| 2026-05-01 09:05 | 37.17922 | 124.38130 | 35134 ft | 582 kts | 89° |
| 2026-05-01 09:05 | 37.18146 | 124.48278 | 35135 ft | 582 kts | 89° |
| 2026-05-01 09:06 | 37.18383 | 124.58429 | 35139 ft | 582 kts | 89° |
| 2026-05-01 09:06 | 37.18603 | 124.68582 | 35135 ft | 582 kts | 89° |
| 2026-05-01 09:07 | 37.18810 | 124.78723 | 35143 ft | 582 kts | 89° |
| 2026-05-01 09:07 | 37.19015 | 124.88870 | 35139 ft | 581 kts | 89° |
| 2026-05-01 09:08 | 37.19219 | 124.98984 | 35134 ft | 580 kts | 89° |
| 2026-05-01 09:08 | 37.19419 | 125.09115 | 35136 ft | 579 kts | 89° |
| 2026-05-01 09:09 | 37.19605 | 125.19217 | 35146 ft | 579 kts | 89° |
| 2026-05-01 09:09 | 37.19783 | 125.29302 | 35149 ft | 578 kts | 89° |
| 2026-05-01 09:10 | 37.19951 | 125.39383 | 35147 ft | 578 kts | 89° |
| 2026-05-01 09:10 | 37.20113 | 125.49477 | 35148 ft | 578 kts | 89° |
| 2026-05-01 09:11 | 37.20252 | 125.59568 | 35150 ft | 578 kts | 90° |
| 2026-05-01 09:11 | 37.20368 | 125.68948 | 35148 ft | 578 kts | 90° |
| 2026-05-01 09:12 | 37.20488 | 125.78882 | 35147 ft | 578 kts | 90° |
| 2026-05-01 09:12 | 37.20600 | 125.88776 | 35148 ft | 578 kts | 90° |
| 2026-05-01 09:13 | 37.20706 | 125.98854 | 35149 ft | 577 kts | 90° |
| 2026-05-01 09:13 | 37.20808 | 126.08927 | 35155 ft | 577 kts | 90° |
| 2026-05-01 09:14 | 37.20895 | 126.18999 | 35157 ft | 577 kts | 90° |
| 2026-05-01 09:14 | 37.20974 | 126.29083 | 35157 ft | 577 kts | 90° |
| 2026-05-01 09:15 | 37.21049 | 126.39156 | 35158 ft | 578 kts | 90° |
| 2026-05-01 09:15 | 37.21115 | 126.49244 | 35157 ft | 578 kts | 90° |
| 2026-05-01 09:16 | 37.21177 | 126.59334 | 35151 ft | 578 kts | 90° |
| 2026-05-01 09:17 | 37.21260 | 126.74415 | 35147 ft | 579 kts | 90° |
| 2026-05-01 09:17 | 37.21336 | 126.89578 | 35128 ft | 577 kts | 89° |
| 2026-05-01 09:18 | 37.21736 | 126.94581 | 35125 ft | 576 kts | 76° |
| 2026-05-01 09:18 | 37.24682 | 127.03771 | 35132 ft | 564 kts | 52° |
| 2026-05-01 09:19 | 37.29636 | 127.11221 | 35157 ft | 552 kts | 39° |
| 2026-05-01 09:19 | 37.32263 | 127.14743 | 35140 ft | 554 kts | 40° |
| 2026-05-01 09:20 | 37.40071 | 127.25492 | 35104 ft | 539 kts | 30° |
| 2026-05-01 09:20 | 37.44835 | 127.32847 | 35199 ft | 556 kts | 55° |
| 2026-05-01 09:21 | 37.48607 | 127.41471 | 35099 ft | 567 kts | 59° |
| 2026-05-01 09:21 | 37.51975 | 127.55873 | 35147 ft | 583 kts | 83° |
| 2026-05-01 09:22 | 37.54747 | 127.75875 | 35021 ft | 573 kts | 77° |
| 2026-05-01 09:23 | 37.57151 | 127.90665 | 34980 ft | 574 kts | 77° |
| 2026-05-01 09:24 | 37.59455 | 128.05493 | 34971 ft | 574 kts | 78° |
| 2026-05-01 09:25 | 37.62519 | 128.25225 | 34975 ft | 575 kts | 78° |
| 2026-05-01 09:26 | 37.64817 | 128.40059 | 35031 ft | 573 kts | 78° |
| 2026-05-01 09:26 | 37.67072 | 128.54934 | 35018 ft | 577 kts | 78° |
| 2026-05-01 09:27 | 37.68969 | 128.68290 | 34979 ft | 577 kts | 86° |
| 2026-05-01 09:27 | 37.68906 | 128.73334 | 35005 ft | 573 kts | 100° |
| 2026-05-01 09:28 | 37.68122 | 128.78240 | 34978 ft | 568 kts | 111° |
| 2026-05-01 09:28 | 37.66734 | 128.82860 | 34991 ft | 558 kts | 123° |
| 2026-05-01 09:28 | 37.64805 | 128.86982 | 35019 ft | 549 kts | 130° |
| 2026-05-01 09:29 | 37.58641 | 128.99268 | 35002 ft | 555 kts | 129° |
| 2026-05-01 09:30 | 37.52609 | 129.11778 | 35003 ft | 557 kts | 128° |
| 2026-05-01 09:30 | 37.46587 | 129.24270 | 35003 ft | 555 kts | 129° |
| 2026-05-01 09:31 | 37.42570 | 129.32564 | 35000 ft | 554 kts | 129° |
| 2026-05-01 09:32 | 37.36562 | 129.44955 | 35010 ft | 552 kts | 129° |
| 2026-05-01 09:32 | 37.30554 | 129.57303 | 35020 ft | 551 kts | 129° |
| 2026-05-01 09:33 | 37.26548 | 129.65517 | 35021 ft | 551 kts | 129° |
| 2026-05-01 09:34 | 37.20533 | 129.77805 | 35012 ft | 551 kts | 129° |
| 2026-05-01 09:34 | 37.14500 | 129.90069 | 35013 ft | 551 kts | 129° |
| 2026-05-01 09:35 | 37.08423 | 130.02325 | 35021 ft | 552 kts | 129° |
| 2026-05-01 09:36 | 37.04373 | 130.10496 | 35023 ft | 552 kts | 130° |
| 2026-05-01 09:36 | 37.00336 | 130.18607 | 35030 ft | 552 kts | 130° |
| 2026-05-01 09:37 | 36.96266 | 130.26763 | 35029 ft | 553 kts | 130° |
| 2026-05-01 09:37 | 36.90150 | 130.38986 | 35030 ft | 553 kts | 130° |
| 2026-05-01 09:38 | 36.84022 | 130.51195 | 35039 ft | 552 kts | 130° |
| 2026-05-01 09:39 | 36.77890 | 130.63365 | 35037 ft | 552 kts | 130° |
| 2026-05-01 09:39 | 36.73794 | 130.71465 | 35046 ft | 552 kts | 130° |
| 2026-05-01 09:40 | 36.67630 | 130.83610 | 35048 ft | 552 kts | 130° |
| 2026-05-01 09:41 | 36.63523 | 130.91684 | 35045 ft | 552 kts | 130° |
| 2026-05-01 09:41 | 36.57352 | 131.03781 | 35045 ft | 552 kts | 130° |
| 2026-05-01 09:42 | 36.53220 | 131.11857 | 35052 ft | 552 kts | 130° |
| 2026-05-01 09:43 | 36.44987 | 131.27890 | 35061 ft | 551 kts | 130° |
| 2026-05-01 09:43 | 36.40855 | 131.35914 | 35058 ft | 551 kts | 130° |
| 2026-05-01 09:44 | 36.35445 | 131.48724 | 35052 ft | 566 kts | 115° |
| 2026-05-01 09:45 | 36.32878 | 131.57905 | 35058 ft | 567 kts | 114° |
| 2026-05-01 09:45 | 36.28988 | 131.71793 | 35053 ft | 565 kts | 115° |
| 2026-05-01 09:46 | 36.26350 | 131.80974 | 35061 ft | 564 kts | 115° |
| 2026-05-01 09:46 | 36.23687 | 131.90127 | 35067 ft | 564 kts | 115° |
| 2026-05-01 09:47 | 36.21046 | 131.99192 | 35062 ft | 564 kts | 115° |
| 2026-05-01 09:47 | 36.18386 | 132.08325 | 35067 ft | 564 kts | 115° |
| 2026-05-01 09:48 | 36.15720 | 132.17452 | 35061 ft | 563 kts | 115° |
| 2026-05-01 09:48 | 36.13047 | 132.26564 | 35067 ft | 563 kts | 116° |
| 2026-05-01 09:49 | 36.10366 | 132.35671 | 35063 ft | 563 kts | 116° |
| 2026-05-01 09:49 | 36.07678 | 132.44772 | 35070 ft | 563 kts | 116° |
| 2026-05-01 09:50 | 36.04986 | 132.53866 | 35064 ft | 563 kts | 116° |
| 2026-05-01 09:50 | 36.02284 | 132.62955 | 35069 ft | 563 kts | 116° |
| 2026-05-01 09:51 | 35.99580 | 132.72026 | 35073 ft | 563 kts | 116° |
| 2026-05-01 09:51 | 35.96870 | 132.81087 | 35070 ft | 562 kts | 116° |
| 2026-05-01 09:52 | 35.94153 | 132.90139 | 35073 ft | 562 kts | 116° |
| 2026-05-01 09:52 | 35.91430 | 132.99190 | 35072 ft | 562 kts | 116° |
| 2026-05-01 09:53 | 35.88703 | 133.08225 | 35074 ft | 562 kts | 117° |
| 2026-05-01 09:53 | 35.85966 | 133.17261 | 35077 ft | 562 kts | 117° |
| 2026-05-01 09:54 | 35.83218 | 133.26299 | 35082 ft | 562 kts | 117° |
| 2026-05-01 09:54 | 35.80465 | 133.35331 | 35077 ft | 562 kts | 117° |
| 2026-05-01 09:55 | 35.77723 | 133.44294 | 35076 ft | 562 kts | 117° |
| 2026-05-01 09:55 | 35.74959 | 133.53303 | 35076 ft | 562 kts | 117° |
| 2026-05-01 09:56 | 35.72192 | 133.62297 | 35067 ft | 561 kts | 117° |
| 2026-05-01 09:56 | 35.69425 | 133.71267 | 35074 ft | 560 kts | 117° |
| 2026-05-01 09:57 | 35.66655 | 133.80216 | 35073 ft | 560 kts | 117° |
| 2026-05-01 09:57 | 35.63877 | 133.89162 | 35079 ft | 559 kts | 117° |
| 2026-05-01 09:58 | 35.61096 | 133.98088 | 35074 ft | 559 kts | 117° |
| 2026-05-01 09:58 | 35.58311 | 134.07001 | 35071 ft | 559 kts | 118° |
| 2026-05-01 09:59 | 35.55513 | 134.15927 | 35075 ft | 559 kts | 118° |
| 2026-05-01 09:59 | 35.52710 | 134.24838 | 35076 ft | 560 kts | 118° |
| 2026-05-01 10:00 | 35.49895 | 134.33764 | 35069 ft | 560 kts | 118° |
| 2026-05-01 10:00 | 35.47074 | 134.42674 | 35077 ft | 561 kts | 118° |
| 2026-05-01 10:01 | 35.44243 | 134.51603 | 35077 ft | 563 kts | 118° |
| 2026-05-01 10:01 | 35.41387 | 134.60560 | 35073 ft | 564 kts | 118° |
| 2026-05-01 10:02 | 35.38531 | 134.69514 | 35036 ft | 564 kts | 118° |
| 2026-05-01 10:02 | 35.35689 | 134.78463 | 35076 ft | 563 kts | 119° |
| 2026-05-01 10:03 | 35.32838 | 134.87325 | 35056 ft | 563 kts | 119° |
| 2026-05-01 10:03 | 35.29951 | 134.96247 | 35059 ft | 564 kts | 119° |
| 2026-05-01 10:04 | 35.27074 | 135.05171 | 35064 ft | 563 kts | 119° |
| 2026-05-01 10:04 | 35.24656 | 135.12633 | 35061 ft | 563 kts | 119° |
| 2026-05-01 10:05 | 35.21755 | 135.21548 | 35048 ft | 564 kts | 120° |
| 2026-05-01 10:05 | 35.18847 | 135.30465 | 35060 ft | 564 kts | 120° |
| 2026-05-01 10:06 | 35.15939 | 135.39374 | 35057 ft | 564 kts | 120° |
| 2026-05-01 10:06 | 35.13026 | 135.48279 | 35059 ft | 564 kts | 120° |
| 2026-05-01 10:07 | 35.10101 | 135.57184 | 35059 ft | 566 kts | 120° |
| 2026-05-01 10:07 | 35.07126 | 135.66088 | 35051 ft | 566 kts | 121° |
| 2026-05-01 10:08 | 35.02723 | 135.79582 | 35042 ft | 569 kts | 118° |
| 2026-05-01 10:09 | 35.00527 | 135.88925 | 35041 ft | 578 kts | 107° |
| 2026-05-01 10:09 | 34.99038 | 135.98568 | 35041 ft | 578 kts | 106° |
| 2026-05-01 10:10 | 34.97538 | 136.08199 | 35035 ft | 578 kts | 107° |
| 2026-05-01 10:10 | 34.95171 | 136.22644 | 35034 ft | 580 kts | 108° |
| 2026-05-01 10:11 | 34.93565 | 136.32307 | 35028 ft | 582 kts | 108° |
| 2026-05-01 10:11 | 34.91959 | 136.41985 | 35013 ft | 584 kts | 108° |
| 2026-05-01 10:12 | 34.90342 | 136.51689 | 35001 ft | 584 kts | 108° |
| 2026-05-01 10:13 | 34.87903 | 136.66242 | 34997 ft | 584 kts | 108° |
| 2026-05-01 10:13 | 34.86282 | 136.75926 | 35000 ft | 583 kts | 108° |
| 2026-05-01 10:14 | 34.83839 | 136.90444 | 34999 ft | 583 kts | 108° |
| 2026-05-01 10:14 | 34.82418 | 137.00184 | 35001 ft | 587 kts | 103° |
| 2026-05-01 10:15 | 34.81357 | 137.10048 | 34986 ft | 588 kts | 102° |
| 2026-05-01 10:15 | 34.80301 | 137.19924 | 34972 ft | 589 kts | 103° |
| 2026-05-01 10:16 | 34.79191 | 137.29855 | 34965 ft | 589 kts | 103° |
| 2026-05-01 10:17 | 34.77502 | 137.44663 | 34964 ft | 590 kts | 103° |
| 2026-05-01 10:17 | 34.75802 | 137.59446 | 34926 ft | 591 kts | 103° |
| 2026-05-01 10:18 | 34.74141 | 137.74311 | 34899 ft | 592 kts | 102° |
| 2026-05-01 10:19 | 34.73217 | 137.84283 | 34890 ft | 592 kts | 101° |
| 2026-05-01 10:19 | 34.72277 | 137.94232 | 34872 ft | 592 kts | 102° |
| 2026-05-01 10:20 | 34.71292 | 138.09235 | 34862 ft | 597 kts | 93° |
| 2026-05-01 10:20 | 34.71409 | 138.19405 | 34857 ft | 597 kts | 92° |
| 2026-05-01 10:21 | 34.71553 | 138.34554 | 34861 ft | 597 kts | 93° |
| 2026-05-01 10:22 | 34.71580 | 138.49721 | 34863 ft | 597 kts | 93° |
| 2026-05-01 10:23 | 34.71595 | 138.64809 | 34860 ft | 598 kts | 93° |
| 2026-05-01 10:23 | 34.71602 | 138.79765 | 34815 ft | 594 kts | 93° |
| 2026-05-01 10:24 | 34.71566 | 138.89765 | 34005 ft | 588 kts | 93° |
| 2026-05-01 10:24 | 34.71499 | 138.99726 | 32905 ft | 587 kts | 94° |
| 2026-05-01 10:25 | 34.71436 | 139.09674 | 31330 ft | 589 kts | 94° |
| 2026-05-01 10:25 | 34.71371 | 139.19637 | 29781 ft | 588 kts | 93° |
| 2026-05-01 10:26 | 34.71338 | 139.24606 | 29089 ft | 585 kts | 94° |
| 2026-05-01 10:26 | 34.71302 | 139.29523 | 28555 ft | 578 kts | 94° |
| 2026-05-01 10:26 | 34.71359 | 139.39141 | 27532 ft | 563 kts | 85° |
| 2026-05-01 10:27 | 34.74038 | 139.47823 | 26224 ft | 545 kts | 53° |
| 2026-05-01 10:27 | 34.78109 | 139.55512 | 25100 ft | 536 kts | 56° |
| 2026-05-01 10:28 | 34.80028 | 139.59375 | 24567 ft | 531 kts | 57° |
| 2026-05-01 10:28 | 34.83730 | 139.67032 | 23529 ft | 520 kts | 57° |
| 2026-05-01 10:28 | 34.85552 | 139.70807 | 23012 ft | 515 kts | 57° |
| 2026-05-01 10:29 | 34.89140 | 139.78198 | 21981 ft | 505 kts | 57° |
| 2026-05-01 10:29 | 34.91057 | 139.81713 | 21305 ft | 493 kts | 45° |
| 2026-05-01 10:30 | 34.96607 | 139.86011 | 20161 ft | 461 kts | 9° |
| 2026-05-01 10:30 | 35.02722 | 139.86972 | 19148 ft | 429 kts | 348° |
| 2026-05-01 10:31 | 35.08207 | 139.85429 | 17200 ft | 392 kts | 335° |
| 2026-05-01 10:31 | 35.13395 | 139.83657 | 14533 ft | 383 kts | 337° |
| 2026-05-01 10:32 | 35.18268 | 139.82103 | 13605 ft | 334 kts | 338° |
| 2026-05-01 10:32 | 35.20432 | 139.81423 | 13345 ft | 309 kts | 338° |
| 2026-05-01 10:32 | 35.24589 | 139.81002 | 12533 ft | 312 kts | 13° |
| 2026-05-01 10:33 | 35.27850 | 139.84408 | 11921 ft | 316 kts | 62° |
| 2026-05-01 10:33 | 35.30026 | 139.89024 | 11196 ft | 313 kts | 57° |
| 2026-05-01 10:34 | 35.31158 | 139.91277 | 10955 ft | 307 kts | 57° |
| 2026-05-01 10:34 | 35.32499 | 139.93255 | 10531 ft | 299 kts | 39° |
| 2026-05-01 10:34 | 35.34060 | 139.94952 | 10142 ft | 300 kts | 40° |
| 2026-05-01 10:35 | 35.37111 | 139.98318 | 9673 ft | 291 kts | 40° |
| 2026-05-01 10:35 | 35.38614 | 139.99970 | 9357 ft | 289 kts | 40° |
| 2026-05-01 10:35 | 35.39608 | 140.01054 | 9188 ft | 286 kts | 40° |
| 2026-05-01 10:35 | 35.41090 | 140.02643 | 8853 ft | 279 kts | 35° |
| 2026-05-01 10:36 | 35.44703 | 140.04079 | 8099 ft | 272 kts | 8° |
| 2026-05-01 10:36 | 35.46567 | 140.04416 | 7780 ft | 270 kts | 7° |
| 2026-05-01 10:36 | 35.48411 | 140.04726 | 7495 ft | 267 kts | 7° |
| 2026-05-01 10:37 | 35.50126 | 140.04996 | 7216 ft | 265 kts | 6° |
| 2026-05-01 10:37 | 35.53800 | 140.05528 | 6628 ft | 259 kts | 6° |
| 2026-05-01 10:37 | 35.55585 | 140.05767 | 6330 ft | 255 kts | 6° |
| 2026-05-01 10:38 | 35.57348 | 140.05990 | 6012 ft | 254 kts | 7° |
| 2026-05-01 10:38 | 35.59090 | 140.06246 | 5675 ft | 251 kts | 7° |
| 2026-05-01 10:38 | 35.60891 | 140.06488 | 5315 ft | 250 kts | 6° |
| 2026-05-01 10:38 | 35.62612 | 140.06676 | 5035 ft | 247 kts | 6° |
| 2026-05-01 10:39 | 35.64286 | 140.06850 | 4972 ft | 235 kts | 6° |
| 2026-05-01 10:39 | 35.65877 | 140.07008 | 4905 ft | 222 kts | 6° |
| 2026-05-01 10:39 | 35.67368 | 140.07153 | 4884 ft | 206 kts | 5° |
| 2026-05-01 10:39 | 35.68693 | 140.06869 | 4796 ft | 196 kts | 328° |
| 2026-05-01 10:40 | 35.69755 | 140.05749 | 4790 ft | 216 kts | 323° |
| 2026-05-01 10:40 | 35.70960 | 140.04590 | 4883 ft | 224 kts | 327° |
| 2026-05-01 10:40 | 35.72245 | 140.03484 | 4929 ft | 226 kts | 329° |
| 2026-05-01 10:40 | 35.73521 | 140.02430 | 4965 ft | 215 kts | 329° |
| 2026-05-01 10:41 | 35.74716 | 140.01461 | 4897 ft | 196 kts | 330° |
| 2026-05-01 10:41 | 35.75805 | 140.00587 | 4880 ft | 179 kts | 331° |
| 2026-05-01 10:41 | 35.77752 | 139.98723 | 4898 ft | 183 kts | 305° |
| 2026-05-01 10:42 | 35.78249 | 139.97247 | 4934 ft | 192 kts | 286° |
| 2026-05-01 10:42 | 35.78359 | 139.95601 | 4919 ft | 197 kts | 265° |
| 2026-05-01 10:42 | 35.77995 | 139.93989 | 4923 ft | 193 kts | 250° |
| 2026-05-01 10:42 | 35.77378 | 139.92520 | 4925 ft | 194 kts | 238° |
| 2026-05-01 10:43 | 35.76550 | 139.91195 | 4924 ft | 197 kts | 228° |
| 2026-05-01 10:43 | 35.75589 | 139.90025 | 4917 ft | 191 kts | 221° |
| 2026-05-01 10:43 | 35.74492 | 139.89190 | 4872 ft | 179 kts | 199° |
| 2026-05-01 10:43 | 35.73290 | 139.88907 | 4478 ft | 180 kts | 180° |
| 2026-05-01 10:44 | 35.72026 | 139.88996 | 3974 ft | 180 kts | 169° |
| 2026-05-01 10:44 | 35.70783 | 139.89094 | 3499 ft | 179 kts | 183° |
| 2026-05-01 10:44 | 35.69549 | 139.88750 | 2941 ft | 185 kts | 200° |
| 2026-05-01 10:44 | 35.68413 | 139.87983 | 2468 ft | 185 kts | 217° |
| 2026-05-01 10:45 | 35.67447 | 139.87000 | 2170 ft | 177 kts | 221° |
| 2026-05-01 10:45 | 35.66536 | 139.86089 | 1999 ft | 162 kts | 214° |
| 2026-05-01 10:45 | 35.65619 | 139.85321 | 1791 ft | 161 kts | 211° |
| 2026-05-01 10:45 | 35.64707 | 139.84579 | 1631 ft | 154 kts | 213° |
| 2026-05-01 10:46 | 35.63826 | 139.83843 | 1443 ft | 152 kts | 213° |
| 2026-05-01 10:46 | 35.62979 | 139.83104 | 1284 ft | 150 kts | 214° |
| 2026-05-01 10:46 | 35.62142 | 139.82343 | 1170 ft | 148 kts | 213° |
| 2026-05-01 10:46 | 35.61324 | 139.81596 | 1105 ft | 146 kts | 213° |
| 2026-05-01 10:47 | 35.60443 | 139.80874 | 1038 ft | 157 kts | 211° |
| 2026-05-01 10:47 | 35.59506 | 139.80081 | 905 ft | 169 kts | 214° |
| 2026-05-01 10:47 | 35.58537 | 139.79237 | 595 ft | 169 kts | 213° |
| 2026-05-01 10:47 | 35.57794 | 139.78632 | 377 ft | 161 kts | 213° |
| 2026-05-01 10:48 | 35.56916 | 139.77863 | 105 ft | 150 kts | 213° |
| 2026-05-01 10:48 | 35.56111 | 139.77181 | 30 ft | 137 kts | 215° |
| 2026-05-01 10:48 | 35.55418 | 139.76580 | 30 ft | 91 kts | 214° |
| 2026-05-01 10:48 | 35.55151 | 139.76362 | 30 ft | 30 kts | 205° |
| 2026-05-01 10:49 | 35.55045 | 139.76321 | 30 ft | 4 kts | 193° |
| 2026-05-01 10:49 | 35.55007 | 139.76311 | 29 ft | 8 kts | 191° |
| 2026-05-01 10:49 | 35.54949 | 139.76316 | 28 ft | 9 kts | 158° |
| 2026-05-01 10:49 | 35.54906 | 139.76371 | 28 ft | 8 kts | 129° |
| 2026-05-01 10:50 | 35.54871 | 139.76424 | 28 ft | 8 kts | 123° |
| 2026-05-01 10:50 | 35.54864 | 139.76491 | 28 ft | 8 kts | 78° |
| 2026-05-01 10:50 | 35.54886 | 139.76555 | 28 ft | 8 kts | 62° |
| 2026-05-01 10:50 | 35.54915 | 139.76616 | 28 ft | 8 kts | 59° |
| 2026-05-01 10:51 | 35.54944 | 139.76677 | 28 ft | 8 kts | 59° |
| 2026-05-01 10:51 | 35.54965 | 139.76719 | 28 ft | 0 kts | 59° |
| 2026-05-01 10:51 | 35.54968 | 139.76726 | 28 ft | 2 kts | 63° |
| 2026-05-01 10:51 | 35.54978 | 139.76752 | 28 ft | 5 kts | 64° |
| 2026-05-01 10:52 | 35.54965 | 139.76790 | 28 ft | 6 kts | 148° |
| 2026-05-01 10:52 | 35.54947 | 139.76802 | 28 ft | 2 kts | 153° |
| 2026-05-01 10:52 | 35.54931 | 139.76812 | 28 ft | 0 kts | 152° |